createdAt,value
2022-12-23T00:00:40.518Z,1.97
2022-12-23T00:03:07.521Z,2.13
2022-12-23T00:05:41.040Z,1.83
2022-12-23T00:08:08.300Z,1.87
2022-12-23T00:10:38.367Z,1.73
2022-12-23T00:13:23.609Z,1.63
2022-12-23T00:15:50.142Z,1.63
2022-12-23T00:18:16.887Z,1.60
2022-12-23T00:20:43.528Z,1.30
2022-12-23T00:23:10.140Z,1.53
2022-12-23T00:25:41.768Z,1.33
2022-12-23T00:28:13.599Z,1.40
2022-12-23T00:30:47.390Z,1.53
2022-12-23T00:33:22.673Z,1.40
2022-12-23T00:35:49.927Z,1.50
2022-12-23T00:38:17.683Z,1.53
2022-12-23T00:41:03.267Z,1.73
2022-12-23T00:43:29.937Z,1.50
2022-12-23T00:45:56.643Z,1.60
2022-12-23T00:48:43.625Z,1.43
2022-12-23T00:51:10.167Z,1.57
2022-12-23T00:53:36.725Z,1.50
2022-12-23T00:56:03.375Z,1.50
2022-12-23T00:58:31.899Z,1.40
2022-12-23T01:01:18.944Z,1.57
2022-12-23T01:04:03.859Z,1.50
2022-12-23T01:06:30.490Z,1.10
2022-12-23T01:08:57.008Z,1.40
2022-12-23T01:11:23.591Z,1.17
2022-12-23T01:13:50.537Z,1.60
2022-12-23T01:16:18.029Z,1.30
2022-12-23T01:18:45.670Z,1.40
2022-12-23T01:21:12.473Z,1.40
2022-12-23T01:23:39.394Z,1.20
2022-12-23T01:26:07.807Z,1.33
2022-12-23T01:28:36.022Z,1.30
2022-12-23T01:31:05.048Z,1.10
2022-12-23T01:33:33.201Z,1.10
2022-12-23T01:36:05.148Z,1.30
2022-12-23T01:38:31.737Z,1.07
2022-12-23T01:40:58.505Z,1.60
2022-12-23T01:43:45.825Z,1.43
2022-12-23T01:46:12.417Z,1.33
2022-12-23T01:48:40.286Z,1.23
2022-12-23T01:51:27.567Z,1.43
2022-12-23T01:53:59.641Z,1.50
2022-12-23T01:56:31.076Z,1.10
2022-12-23T01:59:02.385Z,1.30
2022-12-23T02:01:49.101Z,1.23
2022-12-23T02:04:23.134Z,1.50
2022-12-23T02:07:09.844Z,1.20
2022-12-23T02:09:39.240Z,1.20
2022-12-23T02:12:28.087Z,1.20
2022-12-23T02:15:33.250Z,1.70
2022-12-23T02:18:09.925Z,1.43
2022-12-23T02:20:55.332Z,1.40
2022-12-23T02:23:40.365Z,1.20
2022-12-23T02:26:18.993Z,1.37
2022-12-23T02:29:04.676Z,1.07
2022-12-23T02:31:38.151Z,1.30
2022-12-23T02:34:18.992Z,1.23
2022-12-23T02:36:57.328Z,1.50
2022-12-23T02:39:47.131Z,1.40
2022-12-23T02:42:20.528Z,1.50
2022-12-23T02:44:53.219Z,1.37
2022-12-23T02:47:24.393Z,1.43
2022-12-23T02:49:56.356Z,1.37
2022-12-23T02:52:29.749Z,1.37
2022-12-23T02:55:05.644Z,1.27
2022-12-23T02:57:36.607Z,1.27
2022-12-23T03:00:04.553Z,1.23
2022-12-23T03:02:33.719Z,1.47
2022-12-23T03:05:01.153Z,1.20
2022-12-23T03:07:42.690Z,1.57
2022-12-23T03:10:16.373Z,1.53
2022-12-23T03:13:01.488Z,1.40
2022-12-23T03:15:47.280Z,1.30
2022-12-23T03:18:29.463Z,1.20
2022-12-23T03:21:16.087Z,1.30
2022-12-23T03:23:55.289Z,1.33
2022-12-23T03:26:31.181Z,1.23
2022-12-23T03:29:06.200Z,1.30
2022-12-23T03:31:34.851Z,1.30
2022-12-23T03:34:10.415Z,1.20
2022-12-23T03:36:54.459Z,1.50
2022-12-23T03:39:24.026Z,1.37
2022-12-23T03:42:00.588Z,1.53
2022-12-23T03:44:32.163Z,1.37
2022-12-23T03:47:10.770Z,1.40
2022-12-23T03:49:45.162Z,1.30
2022-12-23T03:52:22.711Z,1.30
2022-12-23T03:54:56.319Z,1.10
2022-12-23T03:57:28.750Z,1.20
2022-12-23T03:59:55.880Z,1.10
2022-12-23T04:02:32.735Z,1.10
2022-12-23T04:05:18.831Z,1.30
2022-12-23T04:07:52.130Z,1.27
2022-12-23T04:10:21.372Z,1.00
2022-12-23T04:12:48.818Z,1.30
2022-12-23T04:15:20.436Z,1.30
2022-12-23T04:17:47.848Z,1.20
2022-12-23T04:20:14.561Z,1.40
2022-12-23T04:22:43.621Z,1.30
2022-12-23T04:25:15.591Z,1.47
2022-12-23T04:27:42.683Z,1.10
2022-12-23T04:30:11.444Z,1.40
2022-12-23T04:32:38.270Z,1.50
2022-12-23T04:35:05.345Z,1.40
2022-12-23T04:37:32.087Z,1.70
2022-12-23T04:39:58.620Z,2.13
2022-12-23T04:42:25.243Z,1.90
2022-12-23T04:44:52.015Z,1.47
2022-12-23T04:47:18.678Z,1.60
2022-12-23T04:49:45.288Z,1.47
2022-12-23T04:52:11.980Z,1.90
2022-12-23T04:54:45.506Z,1.63
2022-12-23T04:57:13.139Z,1.90
2022-12-23T04:59:39.691Z,1.70
2022-12-23T05:02:06.745Z,1.87
2022-12-23T05:04:33.693Z,1.50
2022-12-23T05:07:00.296Z,1.57
2022-12-23T05:09:26.823Z,1.53
2022-12-23T05:11:53.579Z,1.60
2022-12-23T05:14:20.385Z,1.53
2022-12-23T05:16:47.018Z,1.83
2022-12-23T05:19:13.909Z,1.70
2022-12-23T05:21:40.690Z,1.50
2022-12-23T05:24:07.447Z,1.80
2022-12-23T05:26:34.463Z,1.50
2022-12-23T05:29:01.036Z,1.70
2022-12-23T05:31:27.670Z,1.50
2022-12-23T05:33:54.357Z,1.67
2022-12-23T05:36:20.952Z,1.80
2022-12-23T05:38:48.456Z,1.63
2022-12-23T05:41:17.110Z,1.47
2022-12-23T05:43:43.675Z,1.60
2022-12-23T05:46:10.500Z,1.43
2022-12-23T05:48:37.354Z,1.30
2022-12-23T05:51:04.118Z,1.40
2022-12-23T05:53:30.744Z,1.47
2022-12-23T05:55:57.541Z,1.50
2022-12-23T05:58:24.319Z,1.50
2022-12-23T06:00:51.026Z,1.30
2022-12-23T06:03:17.889Z,1.47
2022-12-23T06:05:44.535Z,1.30
2022-12-23T06:08:11.291Z,1.13
2022-12-23T06:10:37.927Z,1.30
2022-12-23T06:13:04.511Z,1.30
2022-12-23T06:15:31.226Z,1.33
2022-12-23T06:17:58.440Z,1.20
2022-12-23T06:20:25.132Z,1.30
2022-12-23T06:22:51.752Z,1.57
2022-12-23T06:25:18.472Z,1.37
2022-12-23T06:27:45.257Z,1.20
2022-12-23T06:30:12.357Z,1.50
2022-12-23T06:32:39.847Z,1.40
2022-12-23T06:35:10.125Z,1.27
2022-12-23T06:37:36.736Z,1.67
2022-12-23T06:40:03.936Z,1.40
2022-12-23T06:42:30.624Z,1.70
2022-12-23T06:44:57.174Z,1.23
2022-12-23T06:47:23.705Z,2.00
2022-12-23T06:49:50.271Z,1.33
2022-12-23T06:52:17.001Z,1.23
2022-12-23T06:54:43.775Z,1.30
2022-12-23T06:57:10.352Z,1.30
2022-12-23T06:59:36.937Z,1.33
2022-12-23T07:02:04.053Z,1.30
2022-12-23T07:04:30.833Z,1.43
2022-12-23T07:06:57.868Z,1.30
2022-12-23T07:09:24.703Z,1.57
2022-12-23T07:11:51.270Z,1.87
2022-12-23T07:14:17.834Z,1.80
2022-12-23T07:16:45.484Z,1.67
2022-12-23T07:19:12.342Z,1.47
2022-12-23T07:21:38.881Z,1.70
2022-12-23T07:24:06.390Z,1.63
2022-12-23T07:26:33.015Z,1.57
2022-12-23T07:28:59.551Z,1.40
2022-12-23T07:31:26.396Z,1.37
2022-12-23T07:33:52.965Z,1.30
2022-12-23T07:36:19.601Z,1.30
2022-12-23T07:38:50.243Z,1.33
2022-12-23T07:41:17.185Z,1.20
2022-12-23T07:43:43.891Z,1.30
2022-12-23T07:46:10.877Z,1.43
2022-12-23T07:48:37.701Z,1.40
2022-12-23T07:51:04.841Z,1.70
2022-12-23T07:53:31.640Z,1.50
2022-12-23T07:55:58.835Z,1.40
2022-12-23T07:58:25.801Z,1.40
2022-12-23T08:00:59.508Z,1.10
2022-12-23T08:03:26.154Z,1.10
2022-12-23T08:06:07.053Z,1.40
2022-12-23T08:08:34.164Z,1.40
2022-12-23T08:11:03.338Z,1.23
2022-12-23T08:13:32.074Z,1.33
2022-12-23T08:16:00.794Z,1.30
2022-12-23T08:18:29.701Z,1.10
2022-12-23T08:20:58.423Z,1.33
2022-12-23T08:23:26.687Z,1.20
2022-12-23T08:26:09.397Z,1.10
2022-12-23T08:28:37.508Z,1.40
2022-12-23T08:31:09.232Z,1.70
2022-12-23T08:33:38.215Z,1.60
2022-12-23T08:36:06.838Z,1.40
2022-12-23T08:38:34.477Z,1.20
2022-12-23T08:41:01.261Z,1.47
2022-12-23T08:43:35.281Z,1.80
2022-12-23T08:46:03.052Z,1.50
2022-12-23T08:48:29.738Z,2.10
2022-12-23T08:50:56.348Z,1.53
2022-12-23T08:53:23.141Z,1.80
2022-12-23T08:55:49.773Z,1.37
2022-12-23T08:58:16.407Z,1.80
2022-12-23T09:00:43.105Z,2.10
2022-12-23T09:03:09.998Z,2.23
2022-12-23T09:05:41.502Z,1.97
2022-12-23T09:08:09.433Z,1.97
2022-12-23T09:10:43.666Z,1.50
2022-12-23T09:13:16.238Z,1.50
2022-12-23T09:15:47.028Z,1.60
2022-12-23T09:18:13.708Z,1.33
2022-12-23T09:20:40.405Z,1.10
2022-12-23T09:23:06.973Z,0.80
2022-12-23T09:25:35.634Z,0.80
2022-12-23T09:28:02.595Z,0.80
2022-12-23T09:30:29.304Z,0.90
2022-12-23T09:32:56.077Z,1.10
2022-12-23T09:35:22.621Z,1.20
2022-12-23T09:37:49.222Z,1.30
2022-12-23T09:40:21.599Z,1.10
2022-12-23T09:42:56.336Z,1.10
2022-12-23T09:45:50.037Z,1.20
2022-12-23T09:48:22.311Z,1.30
2022-12-23T09:50:49.174Z,1.43
2022-12-23T09:53:19.900Z,1.20
2022-12-23T09:55:55.027Z,1.10
2022-12-23T09:58:35.696Z,1.30
2022-12-23T10:01:18.477Z,1.23
2022-12-23T10:04:37.911Z,1.20
2022-12-23T10:07:04.495Z,1.00
2022-12-23T10:09:35.540Z,1.40
2022-12-23T10:12:19.716Z,1.10
2022-12-23T10:14:52.217Z,1.50
2022-12-23T10:17:41.811Z,1.30
2022-12-23T10:20:18.466Z,1.33
2022-12-23T10:22:46.463Z,1.30
2022-12-23T10:25:20.015Z,1.43
2022-12-23T10:27:46.718Z,1.10
2022-12-23T10:30:51.341Z,1.30
2022-12-23T10:33:21.649Z,1.20
2022-12-23T10:36:11.469Z,1.30
2022-12-23T10:38:38.129Z,1.30
2022-12-23T10:41:13.415Z,1.00
2022-12-23T10:44:01.453Z,1.30
2022-12-23T10:46:31.106Z,1.40
2022-12-23T10:49:16.175Z,1.30
2022-12-23T10:51:59.482Z,1.47
2022-12-23T10:54:32.950Z,1.10
2022-12-23T10:57:00.086Z,1.07
2022-12-23T10:59:29.541Z,1.20
2022-12-23T11:02:11.640Z,1.20
2022-12-23T11:04:42.069Z,1.20
2022-12-23T11:07:42.670Z,1.20
2022-12-23T11:10:04.640Z,1.00
2022-12-23T11:12:44.555Z,1.20
2022-12-23T11:15:28.573Z,1.20
2022-12-23T11:18:19.510Z,1.10
2022-12-23T11:21:02.580Z,1.10
2022-12-23T11:23:33.083Z,1.20
2022-12-23T11:26:08.719Z,1.40
2022-12-23T11:28:38.391Z,1.50
2022-12-23T11:31:09.781Z,1.30
2022-12-23T11:33:45.709Z,1.20
2022-12-23T11:36:12.222Z,1.23
2022-12-23T11:38:50.732Z,1.40
2022-12-23T11:41:22.449Z,1.30
2022-12-23T11:43:58.457Z,1.50
2022-12-23T11:46:29.862Z,1.70
2022-12-23T11:49:13.965Z,1.70
2022-12-23T11:51:41.040Z,1.97
2022-12-23T11:54:16.448Z,2.00
2022-12-23T11:56:43.574Z,2.20
2022-12-23T11:59:45.795Z,2.00
2022-12-23T12:02:20.182Z,2.10
2022-12-23T12:04:57.759Z,1.90
2022-12-23T12:07:26.041Z,2.60
2022-12-23T12:09:56.588Z,2.17
2022-12-23T12:12:23.764Z,2.10
2022-12-23T12:14:56.392Z,2.10
2022-12-23T12:17:47.246Z,1.67
2022-12-23T12:20:25.634Z,1.97
2022-12-23T12:23:02.347Z,1.77
2022-12-23T12:25:39.670Z,2.07
2022-12-23T12:28:13.760Z,2.00
2022-12-23T12:30:48.738Z,1.80
2022-12-23T12:33:18.305Z,1.90
2022-12-23T12:35:53.967Z,2.80
2022-12-23T12:38:32.714Z,1.73
2022-12-23T12:41:07.976Z,2.00
2022-12-23T12:43:39.970Z,1.87
2022-12-23T12:46:14.060Z,2.10
2022-12-23T12:48:46.708Z,2.07
2022-12-23T12:51:24.708Z,2.00
2022-12-23T12:54:04.664Z,1.87
2022-12-23T12:56:47.008Z,1.73
2022-12-23T12:59:24.933Z,2.17
2022-12-23T13:02:30.499Z,1.90
2022-12-23T13:05:28.657Z,1.90
2022-12-23T13:08:19.307Z,1.93
2022-12-23T13:11:09.630Z,1.80
2022-12-23T13:14:02.592Z,1.97
2022-12-23T13:16:57.309Z,2.17
2022-12-23T13:19:51.373Z,2.23
2022-12-23T13:22:27.491Z,2.17
2022-12-23T13:25:19.735Z,2.17
2022-12-23T13:27:49.132Z,1.70
2022-12-23T13:30:21.566Z,2.37
2022-12-23T13:33:11.131Z,2.50
2022-12-23T13:35:55.465Z,3.03
2022-12-23T13:38:54.852Z,2.63
2022-12-23T13:41:34.557Z,2.40
2022-12-23T13:44:06.670Z,3.13
2022-12-23T13:47:02.439Z,2.80
2022-12-23T13:49:38.360Z,2.83
2022-12-23T13:52:17.343Z,2.63
2022-12-23T13:54:56.016Z,2.47
2022-12-23T13:57:40.555Z,2.33
2022-12-23T14:00:17.073Z,2.33
2022-12-23T14:03:05.591Z,2.00
2022-12-23T14:05:38.929Z,1.80
2022-12-23T14:08:07.571Z,2.13
2022-12-23T14:10:35.382Z,2.20
2022-12-23T14:13:06.368Z,2.00
2022-12-23T14:15:52.920Z,1.97
2022-12-23T14:18:45.579Z,2.20
2022-12-23T14:21:32.369Z,1.90
2022-12-23T14:24:10.813Z,2.10
2022-12-23T14:27:16.206Z,1.93
2022-12-23T14:29:57.435Z,1.60
2022-12-23T14:32:36.054Z,1.97
2022-12-23T14:35:15.414Z,2.23
2022-12-23T14:37:42.842Z,1.93
2022-12-23T14:40:37.406Z,2.27
2022-12-23T14:43:22.842Z,2.27
2022-12-23T14:45:57.849Z,1.90
2022-12-23T14:48:33.624Z,2.77
2022-12-23T14:51:37.406Z,2.10
2022-12-23T14:54:03.858Z,4.83
2022-12-23T14:56:39.502Z,3.40
2022-12-23T14:59:27.075Z,3.07
2022-12-23T15:01:58.011Z,3.30
2022-12-23T15:04:30.520Z,2.70
2022-12-23T15:06:57.066Z,2.30
2022-12-23T15:09:44.770Z,2.33
2022-12-23T15:12:18.060Z,2.20
2022-12-23T15:14:50.957Z,2.53
2022-12-23T15:17:33.391Z,4.10
2022-12-23T15:20:24.606Z,3.30
2022-12-23T15:22:52.734Z,2.93
2022-12-23T15:25:28.547Z,2.50
2022-12-23T15:28:01.865Z,2.50
2022-12-23T15:30:48.150Z,2.77
2022-12-23T15:34:00.935Z,8.77
2022-12-23T15:36:10.681Z,6.87
2022-12-23T15:38:39.128Z,4.40
2022-12-23T15:41:14.951Z,2.87
2022-12-23T15:43:42.594Z,2.50
2022-12-23T15:46:16.225Z,4.00
2022-12-23T15:48:43.342Z,2.40
2022-12-23T15:51:12.620Z,2.33
2022-12-23T15:53:42.580Z,2.83
2022-12-23T15:56:18.522Z,2.57
2022-12-23T15:58:45.798Z,2.57
2022-12-23T16:01:18.307Z,2.90
2022-12-23T16:03:53.021Z,2.70
2022-12-23T16:06:22.344Z,2.30
2022-12-23T16:08:58.034Z,2.53
2022-12-23T16:11:38.155Z,2.83
2022-12-23T16:14:30.616Z,2.73
2022-12-23T16:17:09.370Z,2.50
2022-12-23T16:19:44.097Z,2.13
2022-12-23T16:22:18.069Z,2.50
2022-12-23T16:24:52.036Z,2.83
2022-12-23T16:27:25.941Z,2.03
2022-12-23T16:29:52.773Z,1.93
2022-12-23T16:32:19.775Z,2.20
2022-12-23T16:34:50.688Z,2.17
2022-12-23T16:37:17.360Z,2.40
2022-12-23T16:39:43.962Z,2.40
2022-12-23T16:42:10.538Z,2.73
2022-12-23T16:44:37.270Z,2.43
2022-12-23T16:47:13.384Z,3.03
2022-12-23T16:49:40.003Z,2.97
2022-12-23T16:52:09.379Z,2.80
2022-12-23T16:54:35.976Z,2.80
2022-12-23T16:57:02.687Z,2.23
2022-12-23T16:59:29.418Z,2.50
2022-12-23T17:02:02.943Z,2.60
2022-12-23T17:04:30.363Z,2.47
2022-12-23T17:06:56.936Z,2.87
2022-12-23T17:09:23.494Z,3.20
2022-12-23T17:11:53.891Z,2.93
2022-12-23T17:14:22.965Z,3.40
2022-12-23T17:16:50.019Z,2.97
2022-12-23T17:19:23.417Z,2.90
2022-12-23T17:21:59.709Z,3.37
2022-12-23T17:24:27.157Z,2.97
2022-12-23T17:26:55.279Z,3.23
2022-12-23T17:29:22.142Z,2.97
2022-12-23T17:31:49.843Z,3.40
2022-12-23T17:34:18.452Z,3.20
2022-12-23T17:36:49.954Z,2.90
2022-12-23T17:39:17.775Z,3.90
2022-12-23T17:41:44.509Z,3.07
2022-12-23T17:44:13.859Z,2.90
2022-12-23T17:46:40.953Z,2.87
2022-12-23T17:49:08.703Z,2.80
2022-12-23T17:51:35.626Z,2.97
2022-12-23T17:54:02.434Z,2.67
2022-12-23T17:56:33.179Z,3.23
2022-12-23T17:58:59.773Z,3.60
2022-12-23T18:01:32.193Z,3.10
2022-12-23T18:04:00.174Z,2.80
2022-12-23T18:06:28.580Z,2.73
2022-12-23T18:08:57.492Z,2.63
2022-12-23T18:11:53.355Z,2.20
2022-12-23T18:14:28.213Z,2.20
2022-12-23T18:16:54.971Z,1.93
2022-12-23T18:19:21.664Z,1.90
2022-12-23T18:21:48.718Z,2.20
2022-12-23T18:24:15.831Z,2.40
2022-12-23T18:26:43.061Z,2.43
2022-12-23T18:29:09.651Z,2.10
2022-12-23T18:31:48.401Z,2.20
2022-12-23T18:34:18.417Z,2.40
2022-12-23T18:36:45.687Z,2.30
2022-12-23T18:39:12.325Z,2.97
2022-12-23T18:41:38.866Z,2.93
2022-12-23T18:44:05.405Z,1.87
2022-12-23T18:46:32.041Z,1.70
2022-12-23T18:48:58.719Z,1.43
2022-12-23T18:51:25.284Z,2.00
2022-12-23T18:53:51.872Z,1.30
2022-12-23T18:56:21.381Z,1.27
2022-12-23T18:58:48.238Z,1.40
2022-12-23T19:01:16.907Z,1.53
2022-12-23T19:03:43.780Z,1.47
2022-12-23T19:06:13.524Z,1.77
2022-12-23T19:08:41.332Z,1.40
2022-12-23T19:11:13.885Z,2.10
2022-12-23T19:13:40.501Z,1.70
2022-12-23T19:16:07.642Z,2.07
2022-12-23T19:18:34.571Z,1.80
2022-12-23T19:21:04.493Z,2.00
2022-12-23T19:23:31.376Z,2.00
2022-12-23T19:25:57.960Z,1.80
2022-12-23T19:28:24.657Z,1.33
2022-12-23T19:30:51.583Z,1.83
2022-12-23T19:33:18.250Z,1.70
2022-12-23T19:35:44.917Z,1.80
2022-12-23T19:38:12.426Z,1.53
2022-12-23T19:40:39.724Z,1.80
2022-12-23T19:43:06.404Z,1.60
2022-12-23T19:45:32.985Z,1.43
2022-12-23T19:47:59.565Z,1.00
2022-12-23T19:50:27.288Z,1.20
2022-12-23T19:52:56.372Z,1.50
2022-12-23T19:55:23.403Z,1.30
2022-12-23T19:57:50.047Z,1.17
2022-12-23T20:00:16.794Z,1.50
2022-12-23T20:02:43.511Z,1.70
2022-12-23T20:05:10.272Z,1.30
2022-12-23T20:07:37.296Z,1.43
2022-12-23T20:10:05.504Z,1.40
2022-12-23T20:12:32.258Z,1.10
2022-12-23T20:14:58.847Z,1.40
2022-12-23T20:17:25.614Z,1.30
2022-12-23T20:19:52.243Z,1.40
2022-12-23T20:22:18.901Z,1.50
2022-12-23T20:24:45.727Z,1.40
2022-12-23T20:27:14.904Z,1.40
2022-12-23T20:29:42.644Z,1.53
2022-12-23T20:32:09.452Z,1.50
2022-12-23T20:34:39.470Z,1.37
2022-12-23T20:37:07.056Z,1.70
2022-12-23T20:39:33.909Z,1.50
2022-12-23T20:42:00.468Z,2.10
2022-12-23T20:44:36.007Z,1.80
2022-12-23T20:47:07.102Z,2.10
2022-12-23T20:49:33.782Z,2.23
2022-12-23T20:52:01.208Z,1.90
2022-12-23T20:54:32.795Z,2.00
2022-12-23T20:57:01.089Z,1.50
2022-12-23T20:59:28.006Z,1.50
2022-12-23T21:01:54.978Z,1.50
2022-12-23T21:04:22.648Z,1.17
2022-12-23T21:06:49.700Z,1.30
2022-12-23T21:09:16.422Z,1.23
2022-12-23T21:11:46.241Z,1.30
2022-12-23T21:14:14.653Z,0.97
2022-12-23T21:16:42.624Z,1.10
2022-12-23T21:19:15.748Z,0.90
2022-12-23T21:21:42.735Z,0.87
2022-12-23T21:24:10.754Z,1.00
2022-12-23T21:26:37.501Z,0.90
2022-12-23T21:29:06.455Z,0.83
2022-12-23T21:31:35.142Z,0.90
2022-12-23T21:34:02.282Z,0.70
2022-12-23T21:36:31.676Z,0.80
2022-12-23T21:38:59.247Z,0.60
2022-12-23T21:41:29.157Z,0.70
2022-12-23T21:44:00.161Z,0.87
2022-12-23T21:46:28.312Z,0.70
2022-12-23T21:48:58.957Z,1.07
2022-12-23T21:51:31.807Z,1.23
2022-12-23T21:54:03.699Z,1.33
2022-12-23T21:56:31.566Z,1.60
2022-12-23T21:59:13.118Z,1.53
2022-12-23T22:01:40.915Z,1.60
2022-12-23T22:04:07.984Z,1.37
2022-12-23T22:06:39.156Z,1.60
2022-12-23T22:09:07.323Z,1.60
2022-12-23T22:11:35.692Z,1.60
2022-12-23T22:14:04.263Z,1.60
2022-12-23T22:16:31.795Z,1.60
2022-12-23T22:19:00.255Z,1.67
2022-12-23T22:21:29.529Z,1.77
2022-12-23T22:23:57.102Z,1.80
2022-12-23T22:26:26.997Z,1.80
2022-12-23T22:28:58.648Z,1.67
2022-12-23T22:31:45.310Z,2.07
2022-12-23T22:34:18.946Z,2.00
2022-12-23T22:36:46.141Z,2.10
2022-12-23T22:39:21.127Z,2.00
2022-12-23T22:41:49.968Z,2.17
2022-12-23T22:44:16.713Z,2.57
2022-12-23T22:46:43.601Z,2.47
2022-12-23T22:49:15.270Z,2.60
2022-12-23T22:51:43.140Z,2.17
2022-12-23T22:54:10.295Z,2.20
2022-12-23T22:56:36.966Z,2.17
2022-12-23T22:59:04.847Z,2.33
2022-12-23T23:01:34.396Z,1.80
2022-12-23T23:04:03.054Z,2.00
2022-12-23T23:06:37.863Z,2.30
2022-12-23T23:09:11.451Z,2.03
2022-12-23T23:11:38.648Z,1.50
2022-12-23T23:14:05.785Z,1.63
2022-12-23T23:16:33.307Z,1.30
2022-12-23T23:19:00.503Z,1.43
2022-12-23T23:21:27.220Z,1.20
2022-12-23T23:23:53.947Z,1.40
2022-12-23T23:26:21.136Z,1.20
2022-12-23T23:28:48.050Z,1.10
2022-12-23T23:31:41.452Z,1.10
2022-12-23T23:34:01.375Z,1.10
2022-12-23T23:36:28.082Z,1.17
2022-12-23T23:38:54.836Z,1.17
2022-12-23T23:41:23.640Z,1.10
2022-12-23T23:43:51.335Z,1.33
2022-12-23T23:46:18.346Z,1.10
2022-12-23T23:48:45.248Z,1.20
2022-12-23T23:51:12.821Z,1.40
2022-12-23T23:53:40.225Z,1.10
2022-12-23T23:56:08.537Z,1.37
2022-12-23T23:58:36.484Z,1.20
